Time;durP1;ratioP1;P1;durP2;ratioP2;P2;SDS_P1;SDS_P2;PMS_P1;PMS_P2;Temp;Humidity;BMP_temperature;BMP_pressure;BME280_temperature;BME280_humidity;BME280_pressure;Samples;Min_cycle;Max_cycle;Signal;HPM_P1;HPM_P2
2024/04/15 00:02:22;;;;;;;10.73;3.80;;;;;;;;;;5420069;26;20061;-51
2024/04/15 00:04:47;;;;;;;13.10;4.07;;;;;;;;;;5419934;26;20003;-51
2024/04/15 00:07:12;;;;;;;10.23;3.47;;;;;;;;;;5419436;26;19992;-51
2024/04/15 00:09:37;;;;;;;11.30;3.38;;;;;;;;;;5419902;26;19999;-51
2024/04/15 00:12:03;;;;;;;13.35;3.60;;;;;;;;;;5447586;26;19991;-54
2024/04/15 00:14:28;;;;;;;14.00;3.80;;;;;;;;;;5442730;26;20003;-52
2024/04/15 00:16:53;;;;;;;12.32;3.88;;;;;;;;;;5419825;26;20408;-54
2024/04/15 00:19:18;;;;;;;11.70;3.72;;;;;;;;;;5420347;26;20396;-51
2024/04/15 00:21:43;;;;;;;12.15;4.03;;;;;;;;;;5419698;26;20426;-51
2024/04/15 00:24:09;;;;;;;9.98;3.55;;;;;;;;;;5419997;26;20014;-53
2024/04/15 00:26:34;;;;;;;14.10;3.95;;;;;;;;;;5422413;26;20010;-54
2024/04/15 00:28:59;;;;;;;13.38;4.13;;;;;;;;;;5427052;26;19994;-53
2024/04/15 00:31:24;;;;;;;14.73;4.88;;;;;;;;;;5455540;26;20005;-51
2024/04/15 00:33:49;;;;;;;10.55;3.85;;;;;;;;;;5455902;26;19987;-51
2024/04/15 00:36:15;;;;;;;10.25;3.90;;;;;;;;;;5455699;26;19987;-53
2024/04/15 00:38:40;;;;;;;10.98;4.20;;;;;;;;;;5455718;26;20368;-50
2024/04/15 00:41:05;;;;;;;12.88;4.65;;;;;;;;;;5455719;26;20346;-51
2024/04/15 00:43:31;;;;;;;13.27;4.20;;;;;;;;;;5421436;26;20354;-53
2024/04/15 00:45:56;;;;;;;12.63;4.75;;;;;;;;;;5419019;26;19987;-51
2024/04/15 00:48:21;;;;;;;10.13;4.28;;;;;;;;;;5431435;26;20003;-51
2024/04/15 00:50:47;;;;;;;11.27;4.40;;;;;;;;;;5454736;26;20007;-51
2024/04/15 00:53:14;;;;;;;13.82;4.97;;;;;;;;;;5454284;26;20034;-52
2024/04/15 00:55:41;;;;;;;13.70;4.35;;;;;;;;;;5455092;26;19995;-53
2024/04/15 00:58:06;;;;;;;13.02;4.30;;;;;;;;;;5454883;26;20408;-51
2024/04/15 01:00:31;;;;;;;13.90;4.40;;;;;;;;;;5389885;26;20010;-52
2024/04/15 01:02:56;;;;;;;9.57;4.80;;;;;;;;;;5390360;26;20010;-52
2024/04/15 01:05:22;;;;;;;11.18;4.72;;;;;;;;;;5422519;26;19995;-51
2024/04/15 01:07:47;;;;;;;12.60;4.30;;;;;;;;;;5422123;26;20068;-51
2024/04/15 01:10:12;;;;;;;16.08;4.50;;;;;;;;;;5422031;26;20002;-51
2024/04/15 01:12:40;;;;;;;10.55;4.20;;;;;;;;;;5421961;26;19992;-51
2024/04/15 01:15:05;;;;;;;10.23;3.90;;;;;;;;;;5451522;26;20036;-50
2024/04/15 01:17:31;;;;;;;16.67;4.55;;;;;;;;;;5457503;26;20372;-51
2024/04/15 01:19:58;;;;;;;10.88;4.72;;;;;;;;;;5457927;26;19995;-52
2024/04/15 01:22:24;;;;;;;11.10;4.45;;;;;;;;;;5457519;26;19999;-51
2024/04/15 01:24:50;;;;;;;12.20;4.50;;;;;;;;;;5457869;26;20281;-50
2024/04/15 01:27:15;;;;;;;12.65;4.90;;;;;;;;;;5457951;26;19995;-51
2024/04/15 01:29:41;;;;;;;10.85;3.90;;;;;;;;;;5455628;26;20279;-52
2024/04/15 01:32:06;;;;;;;9.93;4.18;;;;;;;;;;5458013;26;19987;-51
2024/04/15 01:34:31;;;;;;;15.55;4.40;;;;;;;;;;5457963;26;19986;-53
2024/04/15 01:36:57;;;;;;;11.77;4.75;;;;;;;;;;5457783;26;19991;-50
2024/04/15 01:39:22;;;;;;;15.30;4.72;;;;;;;;;;5457548;26;20412;-52
2024/04/15 01:41:47;;;;;;;14.15;5.00;;;;;;;;;;5456649;26;20407;-53
2024/04/15 01:44:12;;;;;;;13.73;5.30;;;;;;;;;;5438816;26;20011;-51
2024/04/15 01:46:37;;;;;;;16.38;5.10;;;;;;;;;;5421566;26;19991;-53
2024/04/15 01:49:03;;;;;;;11.88;5.15;;;;;;;;;;5421834;26;19992;-51
2024/04/15 01:51:30;;;;;;;15.95;5.20;;;;;;;;;;5421769;26;19992;-53
2024/04/15 01:53:55;;;;;;;9.32;4.88;;;;;;;;;;5420443;26;19991;-51
2024/04/15 01:56:20;;;;;;;11.35;5.85;;;;;;;;;;5420947;26;20050;-55
2024/04/15 01:58:45;;;;;;;15.52;5.53;;;;;;;;;;5434693;26;19995;-51
2024/04/15 02:01:10;;;;;;;13.05;5.97;;;;;;;;;;5456651;26;20415;-53
2024/04/15 02:03:36;;;;;;;12.10;5.25;;;;;;;;;;5457015;26;20001;-51
2024/04/15 02:06:01;;;;;;;14.68;5.60;;;;;;;;;;5457304;26;19991;-54
2024/04/15 02:08:26;;;;;;;13.52;5.40;;;;;;;;;;5456558;26;19995;-51
2024/04/15 02:10:51;;;;;;;14.15;5.90;;;;;;;;;;5454395;26;19990;-54
2024/04/15 02:13:16;;;;;;;14.10;5.63;;;;;;;;;;5448847;26;19996;-51
2024/04/15 02:15:42;;;;;;;15.20;6.22;;;;;;;;;;5422323;26;20164;-50
2024/04/15 02:18:07;;;;;;;14.55;6.70;;;;;;;;;;5421441;26;20070;-50
2024/04/15 02:20:32;;;;;;;13.52;6.78;;;;;;;;;;5420869;26;19992;-51
2024/04/15 02:22:57;;;;;;;15.80;6.55;;;;;;;;;;5450897;26;19991;-50
2024/04/15 02:25:24;;;;;;;13.70;5.97;;;;;;;;;;5457296;26;20063;-52
2024/04/15 02:27:49;;;;;;;14.73;6.35;;;;;;;;;;5456066;26;20019;-54
2024/04/15 02:30:14;;;;;;;17.88;6.72;;;;;;;;;;5454906;26;19995;-52
2024/04/15 02:32:42;;;;;;;14.35;7.38;;;;;;;;;;5457076;26;19991;-50
2024/04/15 02:35:07;;;;;;;13.77;6.72;;;;;;;;;;5456686;26;20298;-51
2024/04/15 02:37:32;;;;;;;14.18;6.93;;;;;;;;;;5456054;26;20002;-51
2024/04/15 02:39:58;;;;;;;14.45;7.88;;;;;;;;;;5456557;26;20002;-51
2024/04/15 02:42:23;;;;;;;17.38;7.63;;;;;;;;;;5454697;26;20019;-51
2024/04/15 02:44:48;;;;;;;15.52;7.00;;;;;;;;;;5456399;26;19991;-50
2024/04/15 02:47:13;;;;;;;13.05;7.40;;;;;;;;;;5456813;26;19997;-50
2024/04/15 02:49:38;;;;;;;11.93;7.32;;;;;;;;;;5453612;26;20009;-50
2024/04/15 02:52:04;;;;;;;15.35;7.65;;;;;;;;;;5456591;26;20061;-54
2024/04/15 02:54:29;;;;;;;17.83;7.93;;;;;;;;;;5456242;26;19995;-50
2024/04/15 02:56:54;;;;;;;16.98;7.95;;;;;;;;;;5456529;26;20441;-52
2024/04/15 02:59:19;;;;;;;13.48;7.28;;;;;;;;;;5429403;26;20002;-51
2024/04/15 03:01:46;;;;;;;15.27;8.02;;;;;;;;;;5434602;21;20085;-87
2024/04/15 03:04:12;;;;;;;16.40;7.18;;;;;;;;;;5418961;26;20288;-87
2024/04/15 03:06:39;;;;;;;16.15;7.15;;;;;;;;;;5420617;26;20092;-87
2024/04/15 03:09:05;;;;;;;15.18;6.80;;;;;;;;;;5420803;26;20040;-87
2024/04/15 03:11:31;;;;;;;20.40;7.93;;;;;;;;;;5418327;26;20304;-87
2024/04/15 03:13:58;;;;;;;13.85;7.10;;;;;;;;;;5418835;26;20392;-86
2024/04/15 03:16:23;;;;;;;15.35;7.30;;;;;;;;;;5421145;26;20069;-87
2024/04/15 03:18:48;;;;;;;16.98;7.93;;;;;;;;;;5418740;26;20003;-86
2024/04/15 03:21:15;;;;;;;17.38;7.40;;;;;;;;;;5418632;26;20012;-87
2024/04/15 03:23:41;;;;;;;13.60;6.97;;;;;;;;;;5418418;26;20009;-86
2024/04/15 03:26:07;;;;;;;17.73;7.60;;;;;;;;;;5416995;26;19991;-86
2024/04/15 03:28:33;;;;;;;13.52;6.80;;;;;;;;;;5418431;26;20839;-87
2024/04/15 03:30:59;;;;;;;13.50;6.38;;;;;;;;;;5420632;26;20031;-87
2024/04/15 03:33:25;;;;;;;14.20;6.38;;;;;;;;;;5419679;26;20005;-87
2024/04/15 03:35:52;;;;;;;12.05;5.57;;;;;;;;;;5421741;26;20011;-87
2024/04/15 03:38:19;;;;;;;13.80;6.03;;;;;;;;;;5420992;26;19995;-87
2024/04/15 03:40:45;;;;;;;14.20;5.88;;;;;;;;;;5419288;26;20007;-87
2024/04/15 03:43:12;;;;;;;11.35;5.57;;;;;;;;;;5421245;26;20301;-87
2024/04/15 03:45:38;;;;;;;13.25;6.20;;;;;;;;;;5421141;26;20356;-87
2024/04/15 03:48:04;;;;;;;16.40;5.55;;;;;;;;;;5422374;26;20019;-86
2024/04/15 03:50:31;;;;;;;13.75;5.50;;;;;;;;;;5421130;26;20006;-86
2024/04/15 03:52:58;;;;;;;14.02;5.95;;;;;;;;;;5418866;26;20014;-86
2024/04/15 03:55:25;;;;;;;12.15;5.25;;;;;;;;;;5418884;26;20039;-86
2024/04/15 03:57:52;;;;;;;13.80;5.57;;;;;;;;;;5420620;26;20014;-86
2024/04/15 04:02:45;;;;;;;12.80;5.70;;;;;;;;;;5381871;26;20342;-53
2024/04/15 04:05:11;;;;;;;11.07;5.40;;;;;;;;;;5384476;26;20000;-52
2024/04/15 04:07:38;;;;;;;15.10;4.93;;;;;;;;;;5384108;26;20000;-51
2024/04/15 04:10:04;;;;;;;11.23;4.80;;;;;;;;;;5384450;26;20000;-52
2024/04/15 04:12:31;;;;;;;12.00;4.63;;;;;;;;;;5385017;26;20003;-51
2024/04/15 04:14:59;;;;;;;14.07;5.57;;;;;;;;;;5384043;26;20008;-51
2024/04/15 04:17:25;;;;;;;12.20;5.80;;;;;;;;;;5384436;26;20019;-51
2024/04/15 04:19:53;;;;;;;12.00;5.43;;;;;;;;;;5350947;26;20001;-51
2024/04/15 04:22:20;;;;;;;14.50;6.65;;;;;;;;;;5362972;26;20000;-53
2024/04/15 04:24:46;;;;;;;13.20;6.10;;;;;;;;;;5384902;26;20409;-53
2024/04/15 04:27:13;;;;;;;13.70;6.18;;;;;;;;;;5384649;26;20006;-51
2024/04/15 04:29:39;;;;;;;13.32;6.38;;;;;;;;;;5384647;26;19996;-53
2024/04/15 04:32:06;;;;;;;15.73;6.40;;;;;;;;;;5384656;26;20000;-51
2024/04/15 04:34:35;;;;;;;14.88;5.90;;;;;;;;;;5383984;26;20011;-52
2024/04/15 04:37:00;;;;;;;14.32;6.63;;;;;;;;;;5384115;26;20003;-50
2024/04/15 04:39:27;;;;;;;17.58;6.40;;;;;;;;;;5384339;26;19999;-51
2024/04/15 04:41:53;;;;;;;15.10;6.32;;;;;;;;;;5384490;26;20004;-53
2024/04/15 04:44:20;;;;;;;18.88;7.15;;;;;;;;;;5353357;26;20070;-52
2024/04/15 04:46:48;;;;;;;15.50;6.72;;;;;;;;;;5384521;26;20412;-50
2024/04/15 04:49:15;;;;;;;14.35;6.15;;;;;;;;;;5383723;26;20007;-54
2024/04/15 04:51:40;;;;;;;13.40;6.30;;;;;;;;;;5384559;26;20000;-53
2024/04/15 04:54:06;;;;;;;12.77;6.50;;;;;;;;;;5383796;26;19993;-52
2024/04/15 04:56:33;;;;;;;15.00;6.53;;;;;;;;;;5383971;26;20019;-52
2024/04/15 04:58:59;;;;;;;16.75;6.43;;;;;;;;;;5383978;26;20000;-51
2024/04/15 05:01:24;;;;;;;12.98;5.80;;;;;;;;;;5384506;26;19996;-52
2024/04/15 05:03:51;;;;;;;15.10;5.80;;;;;;;;;;5384322;26;20070;-55
2024/04/15 05:06:17;;;;;;;14.70;5.60;;;;;;;;;;5384944;26;20031;-51
2024/04/15 05:08:44;;;;;;;15.30;6.20;;;;;;;;;;5383996;26;20095;-52
2024/04/15 05:11:11;;;;;;;13.10;6.00;;;;;;;;;;5385361;26;20297;-51
2024/04/15 05:13:37;;;;;;;15.45;6.13;;;;;;;;;;5384658;26;20000;-51
2024/04/15 05:16:03;;;;;;;13.73;5.60;;;;;;;;;;5384027;26;20012;-52
2024/04/15 05:18:30;;;;;;;15.10;6.45;;;;;;;;;;5384457;26;19992;-54
2024/04/15 05:20:57;;;;;;;13.77;5.40;;;;;;;;;;5384377;26;20011;-52
2024/04/15 05:23:24;;;;;;;13.77;5.55;;;;;;;;;;5383348;26;20040;-52
2024/04/15 05:25:50;;;;;;;11.40;5.15;;;;;;;;;;5383819;26;20000;-51
2024/04/15 05:28:16;;;;;;;13.77;5.57;;;;;;;;;;5383600;26;20023;-51
2024/04/15 05:30:43;;;;;;;11.27;5.95;;;;;;;;;;5352622;26;20015;-55
2024/04/15 05:33:10;;;;;;;11.60;5.38;;;;;;;;;;5369262;26;20029;-51
2024/04/15 05:35:36;;;;;;;14.85;6.03;;;;;;;;;;5377760;26;20016;-51
2024/04/15 05:38:03;;;;;;;13.52;5.53;;;;;;;;;;5383404;26;20000;-51
2024/04/15 05:40:28;;;;;;;14.38;5.25;;;;;;;;;;5383615;26;20285;-53
2024/04/15 05:42:54;;;;;;;12.35;5.07;;;;;;;;;;5351955;26;20000;-52
2024/04/15 05:45:20;;;;;;;13.75;5.07;;;;;;;;;;5382821;26;20016;-51
2024/04/15 05:47:46;;;;;;;11.48;5.40;;;;;;;;;;5383265;26;20003;-53
2024/04/15 05:50:13;;;;;;;16.13;4.82;;;;;;;;;;5388310;26;20281;-53
2024/04/15 05:52:39;;;;;;;11.77;5.32;;;;;;;;;;5355519;26;20040;-52
2024/04/15 05:55:05;;;;;;;13.18;4.78;;;;;;;;;;5387026;26;19988;-53
2024/04/15 05:57:31;;;;;;;14.38;4.40;;;;;;;;;;5386607;26;19992;-53
2024/04/15 05:59:58;;;;;;;12.32;4.45;;;;;;;;;;5384870;26;19996;-51
2024/04/15 06:02:23;;;;;;;11.93;4.13;;;;;;;;;;5385628;26;20124;-51
2024/04/15 06:04:50;;;;;;;14.52;4.55;;;;;;;;;;5354423;26;20000;-52
2024/04/15 06:07:18;;;;;;;10.25;4.07;;;;;;;;;;5386247;26;19996;-51
2024/04/15 06:09:43;;;;;;;12.18;4.05;;;;;;;;;;5386019;26;19997;-53
2024/04/15 06:12:09;;;;;;;13.65;4.25;;;;;;;;;;5386608;26;19993;-53
2024/04/15 06:14:36;;;;;;;11.73;3.78;;;;;;;;;;5388024;26;20064;-52
2024/04/15 06:17:02;;;;;;;13.43;3.80;;;;;;;;;;5355475;26;20020;-51
2024/04/15 06:19:28;;;;;;;11.63;3.38;;;;;;;;;;5386423;26;19997;-51
2024/04/15 06:21:55;;;;;;;14.57;3.80;;;;;;;;;;5386329;26;20008;-52
2024/04/15 06:24:21;;;;;;;15.93;3.70;;;;;;;;;;5385612;26;20019;-52
2024/04/15 06:26:48;;;;;;;10.13;3.20;;;;;;;;;;5386356;26;20011;-51
2024/04/15 06:29:14;;;;;;;15.88;3.63;;;;;;;;;;5386938;26;20004;-51
2024/04/15 06:31:40;;;;;;;20.42;3.78;;;;;;;;;;5386528;26;20027;-52
2024/04/15 06:34:07;;;;;;;12.52;3.33;;;;;;;;;;5386423;26;20000;-54
2024/04/15 06:36:34;;;;;;;19.27;3.40;;;;;;;;;;5387137;26;20004;-53
2024/04/15 06:39:00;;;;;;;14.13;3.42;;;;;;;;;;5386183;26;20409;-55
2024/04/15 06:41:27;;;;;;;18.85;4.05;;;;;;;;;;5355123;26;19992;-51
2024/04/15 06:43:53;;;;;;;19.48;3.70;;;;;;;;;;5386968;26;20019;-51
2024/04/15 06:46:20;;;;;;;17.88;3.83;;;;;;;;;;5386123;26;20015;-52
2024/04/15 06:48:46;;;;;;;14.45;3.60;;;;;;;;;;5385506;26;20015;-51
2024/04/15 06:51:13;;;;;;;12.18;3.58;;;;;;;;;;5386244;26;20058;-53
2024/04/15 06:53:40;;;;;;;15.18;3.85;;;;;;;;;;5386562;26;20016;-52
2024/04/15 06:56:08;;;;;;;12.85;3.33;;;;;;;;;;5386710;26;19996;-52
2024/04/15 06:58:33;;;;;;;14.45;3.90;;;;;;;;;;5387172;26;20008;-52
2024/04/15 07:01:00;;;;;;;13.73;3.47;;;;;;;;;;5385429;26;20423;-52
2024/04/15 07:03:26;;;;;;;14.85;3.92;;;;;;;;;;5384924;26;19996;-53
2024/04/15 07:05:53;;;;;;;12.25;3.28;;;;;;;;;;5385805;26;20004;-52
2024/04/15 07:08:20;;;;;;;16.73;3.95;;;;;;;;;;5385371;26;19996;-53
2024/04/15 07:10:46;;;;;;;14.52;3.40;;;;;;;;;;5385889;26;20003;-52
2024/04/15 07:13:12;;;;;;;13.52;3.25;;;;;;;;;;5386194;26;20018;-51
2024/04/15 07:15:39;;;;;;;20.95;3.97;;;;;;;;;;5385638;26;20000;-51
2024/04/15 07:18:05;;;;;;;11.90;3.20;;;;;;;;;;5385368;26;20004;-51
2024/04/15 07:20:30;;;;;;;19.63;4.13;;;;;;;;;;5385504;26;20007;-52
2024/04/15 07:22:57;;;;;;;18.08;3.85;;;;;;;;;;5385280;26;19996;-52
2024/04/15 07:25:23;;;;;;;12.55;3.42;;;;;;;;;;5386033;26;20000;-51
2024/04/15 07:27:50;;;;;;;17.92;3.70;;;;;;;;;;5385550;26;19996;-51
2024/04/15 07:30:16;;;;;;;17.35;4.20;;;;;;;;;;5385779;26;20002;-54
2024/04/15 07:32:44;;;;;;;14.63;3.33;;;;;;;;;;5385340;26;19992;-52
2024/04/15 07:35:09;;;;;;;14.43;3.83;;;;;;;;;;5385048;26;20058;-51
2024/04/15 07:37:36;;;;;;;14.35;3.25;;;;;;;;;;5385409;26;19988;-51
2024/04/15 07:40:03;;;;;;;13.55;3.83;;;;;;;;;;5384902;26;20031;-52
2024/04/15 07:42:30;;;;;;;15.13;3.58;;;;;;;;;;5346304;26;20000;-52
2024/04/15 07:44:56;;;;;;;17.77;4.00;;;;;;;;;;5350205;26;20369;-51
2024/04/15 07:47:22;;;;;;;11.82;3.08;;;;;;;;;;5350209;26;20007;-51
2024/04/15 07:49:49;;;;;;;14.35;3.83;;;;;;;;;;5383177;26;20393;-51
2024/04/15 07:52:15;;;;;;;14.75;3.28;;;;;;;;;;5385303;26;20079;-51
2024/04/15 07:54:41;;;;;;;17.30;3.50;;;;;;;;;;5386092;26;20000;-52
2024/04/15 07:57:10;;;;;;;17.90;3.78;;;;;;;;;;5385629;26;20004;-51
2024/04/15 07:59:36;;;;;;;16.98;3.75;;;;;;;;;;5385189;26;20035;-51
2024/04/15 08:02:02;;;;;;;17.67;3.75;;;;;;;;;;5384258;26;19996;-52
2024/04/15 08:04:29;;;;;;;16.58;3.95;;;;;;;;;;5354742;26;20131;-52
2024/04/15 08:06:55;;;;;;;15.50;3.60;;;;;;;;;;5385567;26;19992;-51
2024/04/15 08:09:21;;;;;;;13.88;3.40;;;;;;;;;;5385093;26;20003;-51
2024/04/15 08:11:47;;;;;;;11.65;3.35;;;;;;;;;;5384363;26;20004;-53
2024/04/15 08:14:13;;;;;;;16.23;3.15;;;;;;;;;;5385618;26;19997;-51
2024/04/15 08:16:40;;;;;;;14.10;3.72;;;;;;;;;;5385443;26;20004;-52
2024/04/15 08:19:07;;;;;;;14.55;3.20;;;;;;;;;;5369185;26;20049;-53
2024/04/15 08:21:34;;;;;;;14.30;3.63;;;;;;;;;;5349913;26;20051;-51
2024/04/15 08:24:00;;;;;;;12.60;3.30;;;;;;;;;;5379025;26;20348;-52
2024/04/15 08:26:26;;;;;;;15.30;3.22;;;;;;;;;;5384668;26;20010;-52
2024/04/15 08:28:53;;;;;;;14.70;3.40;;;;;;;;;;5385168;26;20000;-52
2024/04/15 08:31:19;;;;;;;13.23;3.50;;;;;;;;;;5385268;26;20085;-51
2024/04/15 08:33:47;;;;;;;10.77;2.92;;;;;;;;;;5384968;26;20010;-53
2024/04/15 08:36:15;;;;;;;15.98;3.25;;;;;;;;;;5384778;26;20450;-52
2024/04/15 08:38:44;;;;;;;15.80;2.95;;;;;;;;;;5384538;26;20324;-52
2024/04/15 08:41:15;;;;;;;11.25;3.30;;;;;;;;;;5385356;26;19993;-53
2024/04/15 08:43:41;;;;;;;20.02;3.20;;;;;;;;;;5350172;26;20008;-52
2024/04/15 08:46:11;;;;;;;12.73;3.45;;;;;;;;;;5319417;26;19997;-53
2024/04/15 08:48:38;;;;;;;10.88;3.13;;;;;;;;;;5361900;26;20004;-52
2024/04/15 08:51:03;;;;;;;17.70;4.10;;;;;;;;;;5349750;26;20001;-54
2024/04/15 08:53:30;;;;;;;12.45;2.42;;;;;;;;;;5335421;26;20131;-52
2024/04/15 08:55:56;;;;;;;12.30;2.55;;;;;;;;;;5384933;26;20003;-54
2024/04/15 08:58:22;;;;;;;13.25;3.00;;;;;;;;;;5385078;26;20000;-51
2024/04/15 09:00:48;;;;;;;11.23;2.67;;;;;;;;;;5352692;26;20078;-52
2024/04/15 09:03:14;;;;;;;12.13;2.67;;;;;;;;;;5383895;26;20282;-51
2024/04/15 09:05:41;;;;;;;12.93;2.70;;;;;;;;;;5384592;26;19999;-55
2024/04/15 09:08:07;;;;;;;13.10;2.45;;;;;;;;;;5384421;26;20007;-51
2024/04/15 09:10:34;;;;;;;9.02;2.50;;;;;;;;;;5384005;26;20414;-51
2024/04/15 09:13:00;;;;;;;12.35;3.30;;;;;;;;;;5384233;26;20405;-52
2024/04/15 09:15:27;;;;;;;7.55;2.03;;;;;;;;;;5384560;26;20021;-52
2024/04/15 09:17:54;;;;;;;12.65;2.28;;;;;;;;;;5384345;26;20011;-51
2024/04/15 09:20:21;;;;;;;8.27;2.03;;;;;;;;;;5384473;26;20035;-55
2024/04/15 09:22:47;;;;;;;12.77;2.67;;;;;;;;;;5384118;26;20429;-52
2024/04/15 09:25:14;;;;;;;9.30;2.38;;;;;;;;;;5387999;26;20028;-53
2024/04/15 09:27:41;;;;;;;12.10;2.50;;;;;;;;;;5388750;26;20008;-52
2024/04/15 09:30:07;;;;;;;8.30;2.50;;;;;;;;;;5387421;26;19996;-52
2024/04/15 09:32:34;;;;;;;10.98;3.00;;;;;;;;;;5387377;26;20335;-51
2024/04/15 09:35:04;;;;;;;12.23;2.63;;;;;;;;;;5388018;26;20336;-52
2024/04/15 09:37:37;;;;;;;10.27;2.28;;;;;;;;;;5387513;26;20006;-52
2024/04/15 09:40:04;;;;;;;11.75;2.55;;;;;;;;;;5387333;26;20000;-52
2024/04/15 09:42:31;;;;;;;13.18;2.63;;;;;;;;;;5386949;26;20004;-51
2024/04/15 09:44:58;;;;;;;11.93;2.80;;;;;;;;;;5387466;26;20003;-53
2024/04/15 09:47:25;;;;;;;13.95;2.90;;;;;;;;;;5386811;26;20035;-51
2024/04/15 09:49:52;;;;;;;13.60;2.85;;;;;;;;;;5365191;26;19997;-53
2024/04/15 09:52:28;;;;;;;13.65;2.30;;;;;;;;;;5353054;26;20032;-52
2024/04/15 09:54:59;;;;;;;14.77;2.92;;;;;;;;;;5387468;26;20028;-52
2024/04/15 09:57:25;;;;;;;;;;;;;;;;;;5388293;26;20000;-51
2024/04/15 09:59:57;;;;;;;13.48;3.05;;;;;;;;;;5386565;26;19932;-53
2024/04/15 10:02:41;;;;;;;11.60;2.53;;;;;;;;;;5384581;26;20000;-52
2024/04/15 10:05:14;;;;;;;16.45;3.08;;;;;;;;;;5351910;26;19997;-52
2024/04/15 10:07:40;;;;;;;10.85;2.97;;;;;;;;;;5351702;26;20275;-52
2024/04/15 10:10:07;;;;;;;16.95;3.05;;;;;;;;;;5352052;26;20001;-52
2024/04/15 10:12:33;;;;;;;9.25;2.38;;;;;;;;;;5381325;26;20026;-52
2024/04/15 10:15:00;;;;;;;14.82;2.60;;;;;;;;;;5355315;26;20006;-52
2024/04/15 10:17:26;;;;;;;11.85;2.80;;;;;;;;;;5386614;26;20000;-51
2024/04/15 10:19:53;;;;;;;13.75;3.10;;;;;;;;;;5388065;26;20086;-51
2024/04/15 10:22:23;;;;;;;10.65;2.30;;;;;;;;;;5386373;26;20002;-55
2024/04/15 10:24:49;;;;;;;10.30;2.33;;;;;;;;;;5387260;26;20408;-53
2024/04/15 10:27:16;;;;;;;10.20;2.67;;;;;;;;;;5387533;26;20302;-51
2024/04/15 10:29:42;;;;;;;8.98;2.38;;;;;;;;;;5386726;26;19992;-51
2024/04/15 10:32:08;;;;;;;15.38;2.80;;;;;;;;;;5387063;26;20024;-53
2024/04/15 10:34:40;;;;;;;10.27;2.03;;;;;;;;;;5386138;26;20412;-53
2024/04/15 10:37:14;;;;;;;16.88;2.90;;;;;;;;;;5386644;26;20328;-52
2024/04/15 10:39:45;;;;;;;10.65;2.70;;;;;;;;;;5386051;26;20008;-53
2024/04/15 10:42:11;;;;;;;13.48;2.55;;;;;;;;;;5387639;26;20405;-54
2024/04/15 10:44:38;;;;;;;12.85;2.65;;;;;;;;;;5387139;26;20048;-51
2024/04/15 10:47:05;;;;;;;14.90;2.85;;;;;;;;;;5386447;26;20000;-52
2024/04/15 10:49:32;;;;;;;13.10;2.75;;;;;;;;;;5386732;26;19996;-51
2024/04/15 10:51:58;;;;;;;15.07;2.83;;;;;;;;;;5386324;26;19993;-55
2024/04/15 10:54:24;;;;;;;11.15;3.15;;;;;;;;;;5385691;26;20292;-54
2024/04/15 10:56:51;;;;;;;12.63;2.40;;;;;;;;;;5385895;26;20000;-55
2024/04/15 10:59:18;;;;;;;13.23;2.65;;;;;;;;;;5384129;26;20394;-51
2024/04/15 11:01:45;;;;;;;12.18;2.22;;;;;;;;;;5385138;26;20032;-51
2024/04/15 11:04:11;;;;;;;9.82;2.60;;;;;;;;;;5385673;26;20412;-52
2024/04/15 11:06:38;;;;;;;11.13;2.47;;;;;;;;;;5386235;26;20405;-54
2024/04/15 11:09:07;;;;;;;10.65;2.40;;;;;;;;;;5386248;26;19988;-51
2024/04/15 11:11:34;;;;;;;12.68;2.40;;;;;;;;;;5386216;26;20000;-52
2024/04/15 11:14:01;;;;;;;14.18;2.53;;;;;;;;;;5386407;26;20019;-51
2024/04/15 11:16:28;;;;;;;11.95;2.72;;;;;;;;;;5386092;26;20028;-52
2024/04/15 11:19:04;;;;;;;10.38;2.50;;;;;;;;;;5385805;26;20095;-53
2024/04/15 11:21:30;;;;;;;10.60;2.60;;;;;;;;;;5385566;26;19992;-54
2024/04/15 11:23:57;;;;;;;10.55;2.67;;;;;;;;;;5385451;26;19997;-51
2024/04/15 11:26:24;;;;;;;8.30;2.25;;;;;;;;;;5386256;26;19996;-52
2024/04/15 11:28:50;;;;;;;14.77;2.40;;;;;;;;;;5386447;26;20007;-52
2024/04/15 11:31:20;;;;;;;10.25;2.38;;;;;;;;;;5385493;26;19996;-52
2024/04/15 11:33:46;;;;;;;9.38;2.60;;;;;;;;;;5376347;26;20390;-52
2024/04/15 11:36:17;;;;;;;12.02;2.75;;;;;;;;;;5369642;26;20012;-51
2024/04/15 11:38:44;;;;;;;9.75;2.90;;;;;;;;;;5385920;26;20005;-52
2024/04/15 11:41:10;;;;;;;8.50;2.22;;;;;;;;;;5385672;26;19996;-53
2024/04/15 11:43:40;;;;;;;10.35;2.50;;;;;;;;;;5385911;26;19996;-55
2024/04/15 11:46:07;;;;;;;11.57;2.50;;;;;;;;;;5385217;26;20262;-52
2024/04/15 11:48:33;;;;;;;9.27;2.53;;;;;;;;;;5385248;26;20360;-52
2024/04/15 11:50:59;;;;;;;13.60;2.58;;;;;;;;;;5385698;26;20000;-52
2024/04/15 11:53:26;;;;;;;9.60;2.63;;;;;;;;;;5385548;26;20082;-54
2024/04/15 11:55:55;;;;;;;11.85;2.75;;;;;;;;;;5385643;26;19993;-51
2024/04/15 11:58:22;;;;;;;11.73;2.58;;;;;;;;;;5370517;26;20011;-52
2024/04/15 12:00:50;;;;;;;7.90;2.03;;;;;;;;;;5371316;26;20007;-52
2024/04/15 12:03:18;;;;;;;11.95;2.53;;;;;;;;;;5385032;26;19996;-54
2024/04/15 12:05:44;;;;;;;13.98;2.75;;;;;;;;;;5385403;26;20010;-53
2024/04/15 12:08:10;;;;;;;13.88;2.50;;;;;;;;;;5385349;26;20145;-52
2024/04/15 12:10:37;;;;;;;12.85;2.13;;;;;;;;;;5385457;26;20409;-52
2024/04/15 12:13:03;;;;;;;15.38;2.22;;;;;;;;;;5385644;26;20290;-54
2024/04/15 12:15:30;;;;;;;17.50;2.20;;;;;;;;;;5385567;26;20006;-53
2024/04/15 12:17:56;;;;;;;8.23;2.00;;;;;;;;;;5385451;26;20310;-54
2024/04/15 12:20:23;;;;;;;9.50;2.28;;;;;;;;;;5385718;26;20007;-52
2024/04/15 12:22:50;;;;;;;10.85;2.50;;;;;;;;;;5384820;26;20011;-50
2024/04/15 12:25:16;;;;;;;11.25;2.55;;;;;;;;;;5385390;26;19996;-51
2024/04/15 12:27:44;;;;;;;11.85;3.08;;;;;;;;;;5385165;26;19996;-51
2024/04/15 12:30:10;;;;;;;8.40;2.15;;;;;;;;;;5385089;26;20466;-54
2024/04/15 12:32:40;;;;;;;11.25;2.10;;;;;;;;;;5354122;26;20003;-54
2024/04/15 12:35:07;;;;;;;9.55;1.80;;;;;;;;;;5385146;26;19996;-51
2024/04/15 12:37:33;;;;;;;10.45;1.63;;;;;;;;;;5385310;26;19996;-50
2024/04/15 12:40:00;;;;;;;16.17;2.10;;;;;;;;;;5384990;26;19996;-53
2024/04/15 12:42:26;;;;;;;13.20;2.22;;;;;;;;;;5378067;26;19997;-52
2024/04/15 12:44:53;;;;;;;16.67;1.92;;;;;;;;;;5350100;26;20007;-54
2024/04/15 12:47:19;;;;;;;15.48;2.17;;;;;;;;;;5380661;26;20024;-50
2024/04/15 12:49:46;;;;;;;7.80;1.70;;;;;;;;;;5384897;26;20012;-54
2024/04/15 12:52:12;;;;;;;15.20;1.70;;;;;;;;;;5384767;26;20032;-50
2024/04/15 12:54:38;;;;;;;12.48;2.00;;;;;;;;;;5384646;26;20425;-52
2024/04/15 12:57:04;;;;;;;16.77;1.98;;;;;;;;;;5384291;26;19999;-55
2024/04/15 12:59:30;;;;;;;14.63;1.60;;;;;;;;;;5384464;26;20119;-51
2024/04/15 13:01:57;;;;;;;13.07;1.80;;;;;;;;;;5382683;26;20297;-52
2024/04/15 13:04:23;;;;;;;13.95;2.33;;;;;;;;;;5384465;26;20001;-52
2024/04/15 13:06:50;;;;;;;8.00;1.63;;;;;;;;;;5384354;26;19996;-51
2024/04/15 13:09:16;;;;;;;12.70;1.92;;;;;;;;;;5383787;26;20008;-54
2024/04/15 13:11:43;;;;;;;11.77;2.17;;;;;;;;;;5384457;26;20409;-54
2024/04/15 13:14:09;;;;;;;15.88;1.83;;;;;;;;;;5322076;26;20015;-52
2024/04/15 13:16:36;;;;;;;10.68;1.52;;;;;;;;;;5373784;26;20400;-53
2024/04/15 13:19:03;;;;;;;7.25;1.75;;;;;;;;;;5377840;26;20067;-51
2024/04/15 13:21:29;;;;;;;12.10;2.00;;;;;;;;;;5349452;26;19993;-52
2024/04/15 13:23:55;;;;;;;8.90;1.63;;;;;;;;;;5381664;26;20463;-51
2024/04/15 13:26:22;;;;;;;11.82;1.98;;;;;;;;;;5383626;26;20131;-51
2024/04/15 13:28:48;;;;;;;12.25;2.00;;;;;;;;;;5385001;26;20447;-54
2024/04/15 13:31:15;;;;;;;10.95;1.40;;;;;;;;;;5384024;26;20092;-54
2024/04/15 13:33:41;;;;;;;8.15;1.48;;;;;;;;;;5383669;26;20000;-53
2024/04/15 13:36:08;;;;;;;8.32;1.60;;;;;;;;;;5384411;26;20004;-53
2024/04/15 13:38:35;;;;;;;10.85;1.92;;;;;;;;;;5384054;26;20285;-52
2024/04/15 13:41:01;;;;;;;11.65;1.50;;;;;;;;;;5383852;26;20000;-53
2024/04/15 13:43:28;;;;;;;10.73;1.50;;;;;;;;;;5359833;26;20008;-54
2024/04/15 13:45:55;;;;;;;14.70;2.17;;;;;;;;;;5384058;26;20015;-52
2024/04/15 13:48:21;;;;;;;7.55;2.03;;;;;;;;;;5383291;26;20008;-51
2024/04/15 13:50:48;;;;;;;8.27;1.42;;;;;;;;;;5383596;26;20004;-54
2024/04/15 13:53:14;;;;;;;6.78;1.40;;;;;;;;;;5383343;26;19996;-50
2024/04/15 13:55:40;;;;;;;6.18;1.77;;;;;;;;;;5383738;26;19996;-52
2024/04/15 13:58:07;;;;;;;7.22;1.50;;;;;;;;;;5383928;26;20065;-50
2024/04/15 14:00:33;;;;;;;10.48;1.63;;;;;;;;;;5383422;26;19992;-52
2024/04/15 14:03:01;;;;;;;11.35;1.55;;;;;;;;;;5382766;26;20015;-50
2024/04/15 14:05:27;;;;;;;11.25;1.50;;;;;;;;;;5383347;26;19992;-51
2024/04/15 14:07:52;;;;;;;17.10;1.33;;;;;;;;;;5382945;26;20000;-50
2024/04/15 14:10:19;;;;;;;17.05;1.40;;;;;;;;;;5386095;26;19997;-50
2024/04/15 14:12:45;;;;;;;11.27;1.55;;;;;;;;;;5387699;26;20016;-51
2024/04/15 14:15:11;;;;;;;14.18;1.80;;;;;;;;;;5387160;26;20021;-50
2024/04/15 14:17:39;;;;;;;15.63;1.60;;;;;;;;;;5387177;26;19996;-51
2024/04/15 14:20:05;;;;;;;16.80;1.85;;;;;;;;;;5387928;26;20000;-49
2024/04/15 14:22:32;;;;;;;13.25;1.77;;;;;;;;;;5386551;26;20012;-51
2024/04/15 14:24:58;;;;;;;8.95;1.65;;;;;;;;;;5386604;26;19992;-52
2024/04/15 14:27:25;;;;;;;10.27;1.48;;;;;;;;;;5387252;26;20405;-56
2024/04/15 14:29:51;;;;;;;17.08;1.70;;;;;;;;;;5386714;26;20393;-53